Flight Track Log - Related Links

Times and Time Zones

All times are in EDT time to prevent confusion due to time zone crossing. See the UPS2998 flight status page for this flight to view local times or setup timezone preferences in your user account.

Time Position Orientation Groundspeed Altitude Reporting Facility
EDT Latitude Longitude Course Direction KTS MPH feet Rate Location/Type
Fri 04:46:33 PM 38.1580 -85.7390 159° South 177 204 1,200  Level FlightAware ADS-B
Fri 04:46:58 PM 38.1370 -85.7330 167° South 166 191 2,700 2,492 Climbing FlightAware ADS-B
Fri 04:47:38 PM 38.1060 -85.7340 181° South 178 205 3,900 1,527 Climbing FlightAware ADS-B
Fri 04:47:53 PM 38.0950 -85.7390 200° South 191 220 4,100 600 Climbing FlightAware ADS-B
Fri 04:48:08 PM 38.0840 -85.7510 221° Southwest 221 254 4,200 800 Climbing FlightAware ADS-B
Fri 04:48:23 PM 38.0770 -85.7710 246° West 243 280 4,500 2,520 Climbing FlightAware ADS-B
Fri 04:48:58 PM 38.0770 -85.8180 270° West 246 283 6,300 3,138 Climbing FlightAware ADS-B
Fri 04:49:28 PM 38.0760 -85.8630 268° West 251 289 7,900 3,000 Climbing FlightAware ADS-B
Fri 04:49:58 PM 38.0900 -85.9040 293° West 270 311 9,300 2,533 Climbing FlightAware ADS-B
Fri 04:50:13 PM 38.1070 -85.9180 327° Northwest 286 329 9,800 1,300 Climbing FlightAware ADS-B
Fri 04:50:58 PM 38.1680 -85.9390 345° North 330 380 10,600 1,059 Climbing FlightAware ADS-B
Fri 04:51:38 PM 38.2320 -85.9600 346° North 383 441 11,300 1,050 Climbing FlightAware ADS-B
Fri 04:52:18 PM 38.3050 -85.9830 346° North 428 493 12,000 1,906 Climbing FlightAware ADS-B
Fri 04:53:03 PM 38.3990 -85.9940 355° North 444 511 14,000 2,471 Climbing FlightAware ADS-B
Fri 04:53:43 PM 38.4780 -85.9970 358° North 455 524 15,500 2,400 Climbing FlightAware ADS-B
Fri 04:54:28 PM 38.5750 -86.0030 357° North 460 529 17,400 2,329 Climbing FlightAware ADS-B
Fri 04:55:08 PM 38.6610 -86.0080 357° North 473 544 18,800 2,047 Climbing FlightAware ADS-B
Fri 04:55:53 PM 38.7630 -86.0180 356° North 479 551 20,300 1,875 Climbing FlightAware ADS-B
Fri 04:56:28 PM 38.8290 -86.0460 342° North 480 552 21,300 1,800 Climbing FlightAware ADS-B
Fri 04:57:13 PM 38.9280 -86.1030 336° Northwest 490 564 22,700 1,080 Climbing FlightAware ADS-B
Fri 04:58:08 PM 39.0360 -86.1660 336° Northwest 492 566 23,100 253 Climbing FlightAware ADS-B
Fri 04:58:48 PM 39.1060 -86.2080 335° Northwest 492 566 23,100 2,267 Level FlightAware ADS-B
Fri 04:59:38 PM 39.2290 -86.2770 337° Northwest 500 575 26,500 3,450 Climbing FlightAware ADS-B
Fri 05:00:08 PM 39.2940 -86.3150 336° Northwest 496 571 27,700 2,100 Climbing FlightAware ADS-B
Fri 05:00:58 PM 39.3990 -86.3780 335° Northwest 494 568 29,300 1,768 Climbing FlightAware ADS-B
Fri 05:01:43 PM 39.4950 -86.4330 336° Northwest 495 570 30,500 1,624 Climbing FlightAware ADS-B
Fri 05:02:23 PM 39.5780 -86.4820 336° Northwest 492 566 31,600 1,553 Climbing FlightAware ADS-B
Fri 05:03:08 PM 39.6710 -86.5370 336° Northwest 491 565 32,700 1,129 Climbing FlightAware ADS-B
Fri 05:03:48 PM 39.7550 -86.5870 335° Northwest 497 572 33,200 675 Climbing FlightAware ADS-B
Fri 05:04:28 PM 39.8380 -86.6360 336° Northwest 492 566 33,600 600 Climbing FlightAware ADS-B
Fri 05:05:08 PM 39.9180 -86.6840 335° Northwest 489 563 34,000 282 Climbing FlightAware ADS-B
Fri 05:05:53 PM 40.0070 -86.7430 333° Northwest 484 557 34,000  Level FlightAware ADS-B
Fri 05:06:33 PM 40.0790 -86.8050 327° Northwest 475 547 34,000  Level FlightAware ADS-B
Fri 05:07:13 PM 40.1550 -86.8720 326° Northwest 473 544 34,000  Level FlightAware ADS-B
Fri 05:08:13 PM 40.2570 -86.9780 322° Northwest 470 541 34,000  Level FlightAware ADS-B
Fri 05:09:08 PM 40.3530 -87.0780 322° Northwest 475 547 34,000  Level FlightAware ADS-B
Fri 05:09:53 PM 40.4310 -87.1580 322° Northwest 470 541 34,000  Level FlightAware ADS-B
Fri 05:10:28 PM 40.4860 -87.2140 322° Northwest 464 534 34,000  Level FlightAware ADS-B
Fri 05:11:28 PM 40.5830 -87.3190 321° Northwest 464 534 34,000  Level FlightAware ADS-B
Fri 05:12:13 PM 40.6670 -87.4070 322° Northwest 465 535 34,000  Level FlightAware ADS-B
Fri 05:12:53 PM 40.7330 -87.4770 321° Northwest 467 537 34,000  Level FlightAware ADS-B
Fri 05:13:33 PM 40.8010 -87.5490 321° Northwest 469 540 34,000  Level FlightAware ADS-B
Fri 05:14:18 PM 40.8760 -87.6280 321° Northwest 470 541 34,000  Level FlightAware ADS-B
Fri 05:14:58 PM 40.9440 -87.7020 321° Northwest 472 543 34,000  Level FlightAware ADS-B
Fri 05:15:38 PM 41.0100 -87.7730 321° Northwest 473 544 34,000  Level FlightAware ADS-B
Fri 05:16:23 PM 41.0880 -87.8580 321° Northwest 474 545 34,000  Level FlightAware ADS-B
Fri 05:17:03 PM 41.1530 -87.9260 322° Northwest 474 545 34,000  Level FlightAware ADS-B
Fri 05:17:43 PM 41.2210 -87.9990 321° Northwest 472 543 34,000  Level FlightAware ADS-B
Fri 05:18:28 PM 41.2940 -88.0800 320° Northwest 472 543 34,000  Level FlightAware ADS-B
Fri 05:19:08 PM 41.3650 -88.1570 321° Northwest 474 545 34,000  Level FlightAware ADS-B
Fri 05:19:53 PM 41.4420 -88.2400 321° Northwest 472 543 34,000  Level FlightAware ADS-B
Fri 05:20:33 PM 41.5100 -88.3140 321° Northwest 472 543 34,000  Level FlightAware ADS-B
Fri 05:21:18 PM 41.5850 -88.3970 320° Northwest 473 544 34,000  Level FlightAware ADS-B
Fri 05:21:58 PM 41.6550 -88.4730 321° Northwest 471 542 34,000  Level FlightAware ADS-B
Fri 05:22:38 PM 41.7200 -88.5440 321° Northwest 471 542 34,000  Level FlightAware ADS-B
Fri 05:23:23 PM 41.7940 -88.6280 320° Northwest 471 542 34,000 71 Level FlightAware ADS-B
Fri 05:24:03 PM 41.8640 -88.7040 321° Northwest 471 542 34,100 71 Climbing FlightAware ADS-B
Fri 05:24:48 PM 41.9340 -88.7820 320° Northwest 470 541 34,100 -71 Level FlightAware ADS-B
Fri 05:25:28 PM 42.0050 -88.8630 320° Northwest 468 539 34,000 -75 Descending FlightAware ADS-B
Fri 05:26:08 PM 42.0730 -88.9390 320° Northwest 467 537 34,000  Level FlightAware ADS-B
Fri 05:26:53 PM 42.1500 -89.0250 320° Northwest 466 536 34,000  Level FlightAware ADS-B
Fri 05:27:33 PM 42.2140 -89.0970 320° Northwest 465 535 34,000  Level FlightAware ADS-B
Fri 05:28:13 PM 42.2830 -89.1760 320° Northwest 465 535 34,000  Level FlightAware ADS-B
Fri 05:28:58 PM 42.3530 -89.2540 321° Northwest 464 534 34,000  Level FlightAware ADS-B
Fri 05:29:38 PM 42.4170 -89.3270 320° Northwest 464 534 34,000  Level FlightAware ADS-B
Fri 05:30:23 PM 42.4930 -89.4130 320° Northwest 465 535 34,000  Level FlightAware ADS-B
Fri 05:31:03 PM 42.5620 -89.4920 320° Northwest 469 540 34,000  Level FlightAware ADS-B
Fri 05:31:48 PM 42.6290 -89.5700 319° Northwest 471 542 34,000 71 Level FlightAware ADS-B
Fri 05:32:28 PM 42.7000 -89.6510 320° Northwest 471 542 34,100  Climbing FlightAware ADS-B
Fri 05:33:08 PM 42.7670 -89.7280 320° Northwest 473 544 34,000  Descending FlightAware ADS-B
Fri 05:33:53 PM 42.8430 -89.8160 320° Northwest 468 539 34,100  Climbing FlightAware ADS-B
Fri 05:34:33 PM 42.9110 -89.8950 320° Northwest 468 539 34,000 -71 Descending FlightAware ADS-B
Fri 05:35:18 PM 42.9830 -89.9790 320° Northwest 467 537 34,000  Level FlightAware ADS-B
Fri 05:35:53 PM 43.0360 -90.0430 319° Northwest 464 534 34,000  Level FlightAware ADS-B
Fri 05:36:38 PM 43.1120 -90.1380 318° Northwest 462 532 34,000  Level FlightAware ADS-B
Fri 05:37:23 PM 43.1790 -90.2220 318° Northwest 460 529 34,000  Level FlightAware ADS-B
Fri 05:38:03 PM 43.2420 -90.2990 318° Northwest 460 529 34,000  Level FlightAware ADS-B
Fri 05:38:43 PM 43.3010 -90.3740 317° Northwest 458 527 34,000  Level FlightAware ADS-B
Fri 05:39:28 PM 43.3730 -90.4640 318° Northwest 457 526 34,000  Level FlightAware ADS-B
Fri 05:40:08 PM 43.4340 -90.5430 317° Northwest 454 522 34,000  Level FlightAware ADS-B
Fri 05:40:53 PM 43.5040 -90.6310 318° Northwest 453 521 34,000  Level FlightAware ADS-B
Fri 05:41:33 PM 43.5710 -90.7150 318° Northwest 454 522 34,000  Level FlightAware ADS-B
Fri 05:42:18 PM 43.6420 -90.8050 317° Northwest 455 524 34,000  Level FlightAware ADS-B
Fri 05:42:58 PM 43.7010 -90.8800 317° Northwest 454 522 34,000  Level FlightAware ADS-B
Fri 05:43:38 PM 43.7660 -90.9640 317° Northwest 455 524 34,000  Level FlightAware ADS-B
Fri 05:44:23 PM 43.8330 -91.0510 317° Northwest 458 527 34,000  Level FlightAware ADS-B
Fri 05:45:03 PM 43.8960 -91.1320 317° Northwest 459 528 34,000 71 Level FlightAware ADS-B
Fri 05:45:48 PM 43.9660 -91.2240 317° Northwest 459 528 34,100 71 Climbing FlightAware ADS-B
Fri 05:46:28 PM 44.0290 -91.3050 317° Northwest 460 529 34,100 -75 Level FlightAware ADS-B
Fri 05:47:08 PM 44.0910 -91.3860 317° Northwest 461 531 34,000  Descending FlightAware ADS-B
Fri 05:47:53 PM 44.1600 -91.4750 317° Northwest 459 528 34,100 71 Climbing FlightAware ADS-B
Fri 05:48:33 PM 44.2220 -91.5560 317° Northwest 454 522 34,100 -75 Level FlightAware ADS-B
Fri 05:49:13 PM 44.2820 -91.6350 317° Northwest 449 517 34,000 -71 Descending FlightAware ADS-B
Fri 05:49:58 PM 44.3510 -91.7270 316° Northwest 444 511 34,000  Level FlightAware ADS-B
Fri 05:50:38 PM 44.4120 -91.8080 317° Northwest 444 511 34,000  Level FlightAware ADS-B
Fri 05:51:23 PM 44.4770 -91.8930 317° Northwest 447 514 34,000  Level FlightAware ADS-B
Fri 05:52:03 PM 44.5370 -91.9730 316° Northwest 449 517 34,000 71 Level FlightAware ADS-B
Fri 05:52:48 PM 44.6060 -92.0650 317° Northwest 449 517 34,100 71 Climbing FlightAware ADS-B
Fri 05:53:28 PM 44.6660 -92.1460 316° Northwest 450 518 34,100  Level FlightAware ADS-B
Fri 05:54:08 PM 44.7270 -92.2290 316° Northwest 449 517 34,100 -71 Level FlightAware ADS-B
Fri 05:54:53 PM 44.7940 -92.3170 317° Northwest 445 512 34,000 -71 Descending FlightAware ADS-B
Fri 05:55:33 PM 44.8540 -92.3990 316° Northwest 443 510 34,000  Level FlightAware ADS-B
Fri 05:56:18 PM 44.9160 -92.4830 316° Northwest 441 507 34,000  Level FlightAware ADS-B
Fri 05:56:58 PM 44.9740 -92.5630 316° Northwest 439 505 34,000  Level FlightAware ADS-B
Fri 05:57:38 PM 45.0310 -92.6410 316° Northwest 437 503 34,000  Level FlightAware ADS-B
Fri 05:58:18 PM 45.0940 -92.7260 316° Northwest 437 503 34,000  Level FlightAware ADS-B
Fri 05:59:03 PM 45.1590 -92.8160 316° Northwest 437 503 34,000  Level FlightAware ADS-B
Fri 05:59:43 PM 45.2150 -92.8920 316° Northwest 438 504 34,000  Level FlightAware ADS-B
Fri 06:00:23 PM 45.2740 -92.9740 316° Northwest 439 505 34,000 67 Level FlightAware ADS-B
Fri 06:01:13 PM 45.3480 -93.0770 316° Northwest 439 505 34,100 400 Climbing FlightAware ADS-B
Fri 06:01:53 PM 45.4030 -93.1540 316° Northwest 435 501 34,600 1,050 Climbing FlightAware ADS-B
Fri 06:02:33 PM 45.4570 -93.2290 316° Northwest 432 497 35,500 988 Climbing FlightAware ADS-B
Fri 06:03:18 PM 45.5250 -93.3250 315° West 434 499 36,000 353 Climbing FlightAware ADS-B
Fri 06:03:58 PM 45.5830 -93.4060 316° Northwest 431 496 36,000  Level FlightAware ADS-B
Fri 06:04:43 PM 45.6490 -93.4980 316° Northwest 432 497 36,000  Level FlightAware ADS-B
Fri 06:05:23 PM 45.7030 -93.5760 315° West 433 498 36,000  Level FlightAware ADS-B
Fri 06:06:08 PM 45.7690 -93.6690 316° Northwest 432 497 36,000  Level FlightAware ADS-B
Fri 06:06:48 PM 45.8260 -93.7490 316° Northwest 432 497 36,000  Level FlightAware ADS-B
Fri 06:07:28 PM 45.8830 -93.8320 315° West 432 497 36,000  Level FlightAware ADS-B
Fri 06:08:13 PM 45.9440 -93.9190 315° West 432 497 36,000  Level FlightAware ADS-B
Fri 06:08:53 PM 46.0020 -94.0000 316° Northwest 431 496 36,000  Level FlightAware ADS-B
Fri 06:09:33 PM 46.0560 -94.0830 313° West 430 495 36,000  Level FlightAware ADS-B
Fri 06:10:18 PM 46.1180 -94.1810 312° West 430 495 36,000  Level FlightAware ADS-B
Fri 06:10:58 PM 46.1720 -94.2650 313° West 430 495 36,000  Level FlightAware ADS-B
Fri 06:11:43 PM 46.2330 -94.3590 313° West 428 493 36,000  Level FlightAware ADS-B
Fri 06:12:23 PM 46.2850 -94.4410 313° West 428 493 36,000  Level FlightAware ADS-B
Fri 06:13:08 PM 46.3480 -94.5380 313° West 428 493 36,000  Level FlightAware ADS-B
Fri 06:13:48 PM 46.4020 -94.6230 313° West 430 495 36,000  Level FlightAware ADS-B
Fri 06:14:28 PM 46.4550 -94.7070 313° West 428 493 36,000  Level FlightAware ADS-B
Fri 06:15:13 PM 46.5140 -94.8000 313° West 428 493 36,000  Level FlightAware ADS-B
Fri 06:15:53 PM 46.5680 -94.8850 313° West 426 490 36,000 71 Level FlightAware ADS-B
Fri 06:16:38 PM 46.6280 -94.9830 312° West 424 488 36,100  Climbing FlightAware ADS-B
Fri 06:17:18 PM 46.6810 -95.0670 313° West 422 486 36,000 -75 Descending FlightAware ADS-B
Fri 06:17:58 PM 46.7340 -95.1510 313° West 421 484 36,000  Level FlightAware ADS-B
Fri 06:18:43 PM 46.7910 -95.2430 312° West 421 484 36,000  Level FlightAware ADS-B
Fri 06:19:23 PM 46.8400 -95.3210 313° West 420 483 36,000  Level FlightAware ADS-B
Fri 06:20:03 PM 46.8900 -95.4060 311° West 420 483 36,000  Level FlightAware ADS-B
Fri 06:20:48 PM 46.9550 -95.5080 313° West 417 480 36,000  Level FlightAware ADS-B
Fri 06:21:28 PM 47.0070 -95.5920 312° West 415 478 36,000  Level FlightAware ADS-B
Fri 06:22:08 PM 47.0590 -95.6760 312° West 416 479 36,000  Level FlightAware ADS-B
Fri 06:22:53 PM 47.1130 -95.7670 311° West 419 482 36,000  Level FlightAware ADS-B
Fri 06:23:33 PM 47.1670 -95.8550 312° West 423 487 36,000  Level FlightAware ADS-B
Fri 06:24:18 PM 47.2270 -95.9540 312° West 425 489 36,000  Level FlightAware ADS-B
Fri 06:24:58 PM 47.2800 -96.0430 311° West 429 494 36,000 60 Level FlightAware ADS-B
Fri 06:25:58 PM 47.3510 -96.1600 312° West 430 495 36,100 60 Climbing FlightAware ADS-B
Fri 06:26:38 PM 47.3950 -96.2350 311° West 430 495 36,100 -75 Level FlightAware ADS-B
Fri 06:27:18 PM 47.4630 -96.3470 312° West 422 486 36,000 -71 Descending FlightAware ADS-B
Fri 06:28:03 PM 47.5200 -96.4440 311° West 419 482 36,000  Level FlightAware ADS-B
Fri 06:28:43 PM 47.5710 -96.5280 312° West 416 479 36,000  Level FlightAware ADS-B
Fri 06:29:28 PM 47.6260 -96.6210 311° West 413 475 36,000  Level FlightAware ADS-B
Fri 06:30:03 PM 47.6720 -96.7000 311° West 409 471 36,000  Level FlightAware ADS-B
Fri 06:30:48 PM 47.7250 -96.7910 311° West 410 472 36,000  Level FlightAware ADS-B
Fri 06:31:33 PM 47.7840 -96.8910 311° West 415 478 36,000  Level FlightAware ADS-B
Fri 06:32:13 PM 47.8360 -96.9780 312° West 421 484 36,000  Level FlightAware ADS-B
Fri 06:32:53 PM 47.8870 -97.0660 311° West 424 488 36,000 71 Level FlightAware ADS-B
Fri 06:33:38 PM 47.9420 -97.1610 311° West 424 488 36,100 71 Climbing FlightAware ADS-B
Fri 06:34:18 PM 47.9900 -97.2560 307° West 420 483 36,100 -71 Level FlightAware ADS-B
Fri 06:35:03 PM 48.0440 -97.3630 307° West 418 481 36,000 -71 Descending FlightAware ADS-B
Fri 06:35:43 PM 48.0890 -97.4560 306° West 417 480 36,000  Level FlightAware ADS-B
Fri 06:36:28 PM 48.1400 -97.5580 307° West 417 480 36,000  Level FlightAware ADS-B
Fri 06:37:08 PM 48.1840 -97.6520 305° West 416 479 36,000  Level FlightAware ADS-B
Fri 06:37:53 PM 48.2370 -97.7590 307° West 417 480 36,000  Level FlightAware ADS-B
Fri 06:38:28 PM 48.2760 -97.8380 307° West 418 481 36,000 75 Level FlightAware ADS-B
Fri 06:39:13 PM 48.3280 -97.9460 306° West 417 480 36,100  Climbing FlightAware ADS-B
Fri 06:39:58 PM 48.3770 -98.0490 306° West 418 481 36,000 -71 Descending FlightAware ADS-B
Fri 06:40:38 PM 48.4230 -98.1440 306° West 418 481 36,000  Level FlightAware ADS-B
Fri 06:41:18 PM 48.4680 -98.2380 306° West 417 480 36,000 71 Level FlightAware ADS-B
Fri 06:42:03 PM 48.5190 -98.3470 305° West 415 478 36,100  Climbing FlightAware ADS-B
Fri 06:42:43 PM 48.5650 -98.4410 307° West 412 474 36,000 -71 Descending FlightAware ADS-B
Fri 06:43:28 PM 48.6130 -98.5440 305° West 411 473 36,000  Level FlightAware ADS-B
Fri 06:44:08 PM 48.6560 -98.6370 305° West 408 470 36,000  Level FlightAware ADS-B
Fri 06:44:48 PM 48.7000 -98.7300 306° West 404 465 36,000  Level FlightAware ADS-B
Fri 06:45:33 PM 48.7490 -98.8360 305° West 402 463 36,000  Level FlightAware ADS-B
Fri 06:46:13 PM 48.7920 -98.9280 305° West 401 461 36,000  Level FlightAware ADS-B
Fri 06:46:58 PM 48.8390 -99.0260 306° West 400 460 36,000  Level FlightAware ADS-B
Fri 06:47:38 PM 48.8820 -99.1210 305° West 401 461 36,000  Level FlightAware ADS-B
Fri 06:48:23 PM 48.9310 -99.2280 305° West 406 467 36,000  Level FlightAware ADS-B
Fri 06:49:03 PM 48.9740 -99.3220 305° West 411 473 36,000  Level FlightAware ADS-B
Fri 06:49:43 PM 49.0180 -99.4150 306° West 414 476 36,000  Level FlightAware ADS-B
Fri 06:50:28 PM 49.0660 -99.5230 304° West 413 475 36,000  Level FlightAware ADS-B
Fri 06:50:58 PM 49.0960 -99.5880 305° West 411 473 36,000  Level FlightAware ADS-B
Fri 06:51:48 PM 49.1500 -99.7080 305° West 408 470 36,000  Level FlightAware ADS-B
Fri 06:52:33 PM 49.2030 -99.8230 305° West 406 467 36,000  Level FlightAware ADS-B
Fri 06:53:13 PM 49.2440 -99.9160 304° West 404 465 36,000  Level FlightAware ADS-B
Fri 06:53:58 PM 49.2890 -100.0210 303° West 403 464 36,000  Level FlightAware ADS-B
Fri 06:54:38 PM 49.3320 -100.1150 305° West 401 461 36,000  Level FlightAware ADS-B
Fri 06:55:23 PM 49.3800 -100.2220 305° West 400 460 36,000  Level FlightAware ADS-B
Fri 06:56:03 PM 49.4220 -100.3160 305° West 401 461 36,000  Level FlightAware ADS-B
Fri 06:56:43 PM 49.4640 -100.4100 305° West 402 463 36,000  Level FlightAware ADS-B
Fri 06:57:28 PM 49.5090 -100.5150 303° West 404 465 36,000  Level FlightAware ADS-B
Fri 06:58:08 PM 49.5510 -100.6130 303° West 404 465 36,000  Level FlightAware ADS-B
Fri 06:58:48 PM 49.5930 -100.7080 304° West 404 465 36,000  Level FlightAware ADS-B
Fri 06:59:33 PM 49.6400 -100.8160 304° West 404 465 36,000  Level FlightAware ADS-B
Fri 07:00:13 PM 49.6820 -100.9120 304° West 405 466 36,000  Level FlightAware ADS-B
Fri 07:00:53 PM 49.7230 -101.0080 303° West 405 466 36,000  Level FlightAware ADS-B
Fri 07:01:38 PM 49.7690 -101.1140 304° West 405 466 36,000  Level FlightAware ADS-B
Fri 07:02:18 PM 49.8100 -101.2110 303° West 404 465 36,000  Level FlightAware ADS-B
Fri 07:03:03 PM 49.8580 -101.3220 304° West 405 466 36,000  Level FlightAware ADS-B
Fri 07:03:48 PM 49.9030 -101.4290 303° West 407 468 36,000  Level FlightAware ADS-B
Fri 07:04:28 PM 49.9440 -101.5270 303° West 408 470 36,000  Level FlightAware ADS-B
Fri 07:05:03 PM 49.9810 -101.6150 303° West 409 471 36,000  Level FlightAware ADS-B
Fri 07:05:53 PM 50.0340 -101.7410 303° West 409 471 36,000  Level FlightAware ADS-B
Fri 07:06:33 PM 50.0730 -101.8340 303° West 406 467 36,000 75 Level FlightAware ADS-B
Fri 07:07:13 PM 50.1090 -101.9230 302° West 406 467 36,100  Climbing FlightAware ADS-B
Fri 07:07:53 PM 50.1550 -102.0300 304° West 403 464 36,000 -75 Descending FlightAware ADS-B
Fri 07:08:33 PM 50.1950 -102.1300 302° West 403 464 36,000  Level FlightAware ADS-B
Fri 07:09:18 PM 50.2360 -102.2280 303° West 402 463 36,000  Level FlightAware ADS-B
Fri 07:10:03 PM 50.2860 -102.3500 303° West 401 461 36,000  Level FlightAware ADS-B
Fri 07:10:58 PM 50.3340 -102.4690 302° West 401 461 36,000  Level FlightAware ADS-B
Fri 07:11:03 PM 50.3260 -102.4470 120° Southeast 36,000  Level FlightAware ADS-B
Fri 07:16:18 PM 50.5260 -103.3120 290° West 403 464 36,000  Level FlightAware ADS-B
Fri 07:17:03 PM 50.5600 -103.4220 296° West 403 464 36,000  Level FlightAware ADS-B
Fri 07:17:43 PM 50.5940 -103.5290 297° West 406 467 36,000 75 Level FlightAware ADS-B
Fri 07:18:23 PM 50.6270 -103.6350 296° West 406 467 36,100 75 Climbing FlightAware ADS-B
Fri 07:19:03 PM 50.6600 -103.7410 296° West 407 468 36,100  Level FlightAware ADS-B
Fri 07:19:53 PM 50.7030 -103.8820 296° West 405 466 36,100 -71 Level FlightAware ADS-B
Fri 07:20:28 PM 50.7330 -103.9770 297° West 401 461 36,000 -75 Descending FlightAware ADS-B
Fri 07:21:13 PM 50.7770 -104.0880 302° West 397 457 36,000  Level FlightAware ADS-B
Fri 07:21:53 PM 50.8160 -104.1890 301° West 396 456 36,000  Level FlightAware ADS-B
Fri 07:22:38 PM 50.8590 -104.2960 303° West 394 453 36,000  Level FlightAware ADS-B
Fri 07:23:18 PM 50.8990 -104.3990 302° West 393 452 36,000  Level FlightAware ADS-B
Fri 07:24:03 PM 50.9410 -104.5070 302° West 393 452 36,000  Level FlightAware ADS-B
Fri 07:24:43 PM 50.9780 -104.6030 301° West 395 455 36,000  Level FlightAware ADS-B
Fri 07:25:28 PM 51.0230 -104.7200 301° West 397 457 36,000 75 Level FlightAware ADS-B
Fri 07:26:03 PM 51.0520 -104.7970 301° West 398 458 36,100 75 Climbing FlightAware ADS-B
Fri 07:26:48 PM 51.0960 -104.9100 302° West 399 459 36,100  Level FlightAware ADS-B
Fri 07:27:23 PM 51.1310 -105.0020 301° West 398 458 36,100 -71 Level FlightAware ADS-B
Fri 07:28:13 PM 51.1780 -105.1280 301° West 398 458 36,000 -55 Descending FlightAware ADS-B
Fri 07:29:13 PM 51.2340 -105.2730 302° West 397 457 36,000  Level FlightAware ADS-B
Fri 07:29:43 PM 51.2660 -105.3610 300° West 396 456 36,000  Level FlightAware ADS-B
Fri 07:30:33 PM 51.3090 -105.4740 301° West 395 455 36,000  Level FlightAware ADS-B
Fri 07:31:13 PM 51.3470 -105.5770 301° West 394 453 36,000  Level FlightAware ADS-B
Fri 07:31:53 PM 51.3840 -105.6770 301° West 394 453 36,000  Level FlightAware ADS-B
Fri 07:33:08 PM 51.4550 -105.8700 301° West 393 452 36,000  Level FlightAware ADS-B
Fri 07:33:53 PM 51.4940 -105.9760 301° West 392 451 36,000  Level FlightAware ADS-B
Fri 07:34:48 PM 51.5440 -106.1120 301° West 394 453 36,000  Level FlightAware ADS-B
Fri 07:35:23 PM 51.5730 -106.1940 300° West 394 453 36,000  Level FlightAware ADS-B
Fri 07:36:03 PM 51.6040 -106.2800 300° West 394 453 36,000  Level FlightAware ADS-B
Fri 07:36:53 PM 51.6530 -106.4140 301° West 394 453 36,000  Level FlightAware ADS-B
Fri 07:37:33 PM 51.6840 -106.5000 300° West 394 453 36,000  Level FlightAware ADS-B
Fri 07:38:13 PM 51.7140 -106.5870 299° West 394 453 36,000  Level FlightAware ADS-B
Fri 07:38:53 PM 51.7450 -106.6740 300° West 394 453 36,000  Level FlightAware ADS-B
Fri 07:39:43 PM 51.7840 -106.7820 300° West 394 453 36,000  Level FlightAware ADS-B
Fri 07:40:23 PM 51.8150 -106.8690 300° West 394 453 36,000  Level FlightAware ADS-B
Fri 07:41:03 PM 51.8460 -106.9560 300° West 394 453 36,000  Level FlightAware ADS-B
Fri 07:41:43 PM 51.8770 -107.0430 300° West 394 453 36,000  Level FlightAware ADS-B
Fri 07:43:05 PM 51.9410 -107.2210 300° West 394 453 36,000  Level FlightAware ADS-B
Fri 07:43:51 PM 51.9760 -107.3210 300° West 394 453 36,000  Level FlightAware ADS-B
Fri 07:44:31 PM 52.0070 -107.4090 300° West 394 453 36,000  Level FlightAware ADS-B
Fri 07:45:11 PM 52.0380 -107.4960 300° West 394 453 36,000  Level FlightAware ADS-B
Fri 07:45:51 PM 52.0690 -107.5830 300° West 394 453 36,000  Level FlightAware ADS-B
Fri 07:46:12 PM 52.1667 -107.9667 300° West 400 460 36,000  Level Winnipeg Center
Fri 07:47:12 PM 52.2167 -108.1167 299° West 390 449 36,000  Level Winnipeg Center
Fri 07:48:12 PM 52.2667 -108.2667 299° West 400 460 36,000  Level Winnipeg Center
Fri 07:49:12 PM 52.3167 -108.4500 294° West 390 449 36,000  Level Winnipeg Center
Fri 07:49:34 PM 52.3333 -108.4833 309° West 390 449 36,000  Level Edmonton Center
Fri 07:50:34 PM 52.3833 -108.6167 302° West 390 449 36,000  Level Edmonton Center
Fri 07:51:12 PM 52.4167 -108.7500 292° West 390 449 36,000  Level Winnipeg Center
Fri 07:52:12 PM 52.4833 -108.9000 306° West 390 449 36,000  Level Winnipeg Center
Fri 07:52:34 PM 52.4833 -108.9333 270° West 390 449 36,000  Level Edmonton Center
Fri 07:53:34 PM 52.5333 -109.1000 296° West 390 449 36,000  Level Edmonton Center
Fri 07:54:34 PM 52.6000 -109.2500 306° West 390 449 36,000  Level Edmonton Center
Fri 07:55:12 PM 52.6333 -109.4000 290° West 390 449 36,000  Level Winnipeg Center
Fri 07:56:12 PM 52.6833 -109.5500 299° West 390 449 36,000  Level Winnipeg Center
Fri 07:57:12 PM 52.7333 -109.7000 299° West 400 460 36,000  Level Winnipeg Center
Fri 07:57:34 PM 52.7500 -109.7333 310° West 390 449 36,000  Level Edmonton Center
Fri 07:58:34 PM 52.7833 -109.8833 290° West 390 449 36,000  Level Edmonton Center
Fri 07:59:12 PM 52.8333 -110.0333 299° West 390 449 36,000  Level Winnipeg Center
Fri 08:05:16 PM 53.1440 -110.9550 299° West 391 450 36,000  Level FlightAware ADS-B
Fri 08:06:16 PM 53.1940 -111.1180 297° West 389 448 36,000  Level FlightAware ADS-B
Fri 08:07:06 PM 53.2310 -111.2450 296° West 386 444 36,000  Level FlightAware ADS-B
Fri 08:07:56 PM 53.2730 -111.3910 296° West 386 444 36,000  Level FlightAware ADS-B
Fri 08:08:31 PM 53.3010 -111.4850 297° West 385 443 36,000  Level FlightAware ADS-B
Fri 08:09:11 PM 53.3310 -111.5870 296° West 385 443 36,000  Level FlightAware ADS-B
Fri 08:10:01 PM 53.3690 -111.7190 296° West 385 443 36,000  Level FlightAware ADS-B
Fri 08:10:36 PM 53.3990 -111.8200 297° West 385 443 36,000  Level FlightAware ADS-B
Fri 08:11:26 PM 53.4370 -111.9550 295° West 387 445 36,000  Level FlightAware ADS-B
Fri 08:12:06 PM 53.4700 -112.0700 296° West 388 447 36,000  Level FlightAware ADS-B
Fri 08:12:51 PM 53.5040 -112.1910 295° West 390 449 36,000  Level FlightAware ADS-B
Fri 08:13:26 PM 53.5320 -112.2910 295° West 392 451 36,000  Level FlightAware ADS-B
Fri 08:14:06 PM 53.5640 -112.4020 296° West 396 456 36,000  Level FlightAware ADS-B
Fri 08:14:46 PM 53.5960 -112.5150 296° West 399 459 36,000 71 Level FlightAware ADS-B
Fri 08:15:31 PM 53.6310 -112.6430 295° West 403 464 36,100 75 Climbing FlightAware ADS-B
Fri 08:16:06 PM 53.6580 -112.7380 296° West 404 465 36,100 -71 Level FlightAware ADS-B
Fri 08:16:56 PM 53.6990 -112.8870 295° West 405 466 36,000 -67 Descending FlightAware ADS-B
Fri 08:17:36 PM 53.7270 -112.9910 295° West 403 464 36,000  Level FlightAware ADS-B
Fri 08:18:21 PM 53.7670 -113.1350 295° West 404 465 36,000  Level FlightAware ADS-B
Fri 08:19:01 PM 53.7970 -113.2480 294° West 403 464 36,000  Level FlightAware ADS-B
Fri 08:19:41 PM 53.8290 -113.3640 295° West 404 465 36,000  Level FlightAware ADS-B
Fri 08:20:21 PM 53.8600 -113.4800 294° West 404 465 36,000  Level FlightAware ADS-B
Fri 08:21:06 PM 53.8950 -113.6110 294° West 405 466 36,000  Level FlightAware ADS-B
Fri 08:21:46 PM 53.9250 -113.7250 294° West 405 466 36,000  Level FlightAware ADS-B
Fri 08:22:31 PM 53.9610 -113.8590 295° West 407 468 36,000  Level FlightAware ADS-B
Fri 08:23:11 PM 53.9920 -113.9800 294° West 408 470 36,000  Level FlightAware ADS-B
Fri 08:23:56 PM 54.0270 -114.1100 295° West 410 472 36,000  Level FlightAware ADS-B
Fri 08:24:36 PM 54.0570 -114.2290 293° West 411 473 36,000  Level FlightAware ADS-B
Fri 08:25:21 PM 54.0930 -114.3670 294° West 413 475 36,000  Level FlightAware ADS-B
Fri 08:26:01 PM 54.1230 -114.4840 294° West 414 476 36,000  Level FlightAware ADS-B
Fri 08:26:41 PM 54.1550 -114.6080 294° West 416 479 36,000  Level FlightAware ADS-B
Fri 08:27:26 PM 54.1890 -114.7420 293° West 420 483 36,000  Level FlightAware ADS-B
Fri 08:28:06 PM 54.2200 -114.8670 293° West 421 484 36,000  Level FlightAware ADS-B
Fri 08:29:01 PM 54.2620 -115.0310 294° West 420 483 36,000  Level FlightAware ADS-B
Fri 08:29:46 PM 54.2970 -115.1720 293° West 419 482 36,000  Level FlightAware ADS-B
Fri 08:30:21 PM 54.3230 -115.2780 293° West 418 481 36,000  Level FlightAware ADS-B
Fri 08:31:06 PM 54.3550 -115.4090 293° West 417 480 36,000  Level FlightAware ADS-B
Fri 08:31:51 PM 54.3840 -115.5310 292° West 417 480 36,000  Level FlightAware ADS-B
Fri 08:32:31 PM 54.4090 -115.6360 292° West 417 480 36,000  Level FlightAware ADS-B
Fri 08:33:11 PM 54.4500 -115.7960 294° West 36,000  Level FlightAware ADS-B
Fri 08:33:56 PM 54.4840 -115.9380 292° West 422 486 36,000  Level FlightAware ADS-B
Fri 08:34:41 PM 54.5180 -116.0780 293° West 426 490 36,000 60 Level FlightAware ADS-B
Fri 08:35:36 PM 54.5560 -116.2380 292° West 427 491 36,100 55 Climbing FlightAware ADS-B
Fri 08:36:31 PM 54.5990 -116.4190 292° West 432 497 36,100 -57 Level FlightAware ADS-B
Fri 08:37:21 PM 54.6340 -116.5730 291° West 432 497 36,000 -63 Descending FlightAware ADS-B
Fri 08:38:06 PM 54.6690 -116.7220 292° West 429 494 36,000  Level FlightAware ADS-B
Fri 08:38:51 PM 54.7030 -116.8720 291° West 426 490 36,000  Level FlightAware ADS-B
Fri 08:39:31 PM 54.7330 -116.9990 292° West 426 490 36,000  Level FlightAware ADS-B
Fri 08:40:11 PM 54.7560 -117.1080 290° West 425 489 36,000  Level FlightAware ADS-B
Fri 08:40:51 PM 54.7790 -117.2170 290° West 425 489 36,000  Level FlightAware ADS-B
Fri 08:41:31 PM 54.8020 -117.3260 290° West 425 489 36,000  Level FlightAware ADS-B
Fri 08:42:21 PM 54.8300 -117.4620 290° West 425 489 36,000  Level FlightAware ADS-B
Fri 08:43:01 PM 54.8530 -117.5720 290° West 425 489 36,000  Level FlightAware ADS-B
Fri 08:43:41 PM 54.8760 -117.6810 290° West 425 489 36,000  Level FlightAware ADS-B
Fri 08:44:21 PM 54.8990 -117.7900 290° West 425 489 36,000  Level FlightAware ADS-B
Fri 08:45:01 PM 54.9220 -117.8990 290° West 425 489 36,000  Level FlightAware ADS-B
Fri 08:45:51 PM 54.9500 -118.0360 290° West 425 489 36,000  Level FlightAware ADS-B
Fri 08:46:31 PM 54.9730 -118.1450 290° West 425 489 36,000  Level FlightAware ADS-B
Fri 08:47:11 PM 54.9960 -118.2550 290° West 425 489 36,000  Level FlightAware ADS-B
Fri 08:47:51 PM 55.0190 -118.3640 290° West 425 489 36,000  Level FlightAware ADS-B
Fri 08:48:31 PM 55.0420 -118.4740 290° West 425 489 36,000  Level FlightAware ADS-B
Fri 08:49:21 PM 55.0700 -118.6110 290° West 425 489 36,000  Level FlightAware ADS-B
Fri 08:50:34 PM 55.1833 -119.2000 290° West 430 495 36,000  Level Edmonton Center
Fri 08:51:47 PM 55.2667 -119.4333 302° West 450 518 36,000  Level Edmonton Center
Fri 08:52:47 PM 55.3333 -119.6167 303° West 440 506 36,000  Level Edmonton Center
Fri 08:53:47 PM 55.3833 -119.8167 294° West 440 506 36,000  Level Edmonton Center
Fri 08:54:47 PM 55.4333 -120.0000 296° West 440 506 36,000  Level Edmonton Center
Fri 08:55:47 PM 55.5000 -120.2000 301° West 440 506 36,000  Level Edmonton Center
Fri 08:56:47 PM 55.5667 -120.3833 303° West 440 506 36,000  Level Edmonton Center
Fri 08:57:47 PM 55.6167 -120.5833 294° West 440 506 36,000  Level Edmonton Center
Fri 08:58:47 PM 55.6833 -120.7667 303° West 450 518 36,000  Level Edmonton Center
Fri 08:59:47 PM 55.7333 -120.9833 292° West 440 506 36,000  Level Edmonton Center
Fri 09:00:47 PM 55.8000 -121.1500 305° West 440 506 36,000  Level Edmonton Center
Fri 09:01:47 PM 55.8667 -121.3667 299° West 440 506 36,000  Level Edmonton Center
Fri 09:02:47 PM 55.9167 -121.5500 296° West 440 506 36,000  Level Edmonton Center
Fri 09:03:47 PM 55.9667 -121.7333 296° West 440 506 36,000  Level Edmonton Center
Fri 09:04:47 PM 56.0333 -121.9500 299° West 440 506 36,000  Level Edmonton Center
Fri 09:05:47 PM 56.0833 -122.1167 298° West 440 506 36,000  Level Edmonton Center
Fri 09:06:47 PM 56.1333 -122.3333 293° West 440 506 36,000  Level Edmonton Center
Fri 09:07:47 PM 56.2000 -122.5500 299° West 440 506 36,000  Level Edmonton Center
Fri 09:08:47 PM 56.2500 -122.7333 296° West 440 506 36,000  Level Edmonton Center
Fri 09:09:47 PM 56.3167 -122.9167 303° West 440 506 36,000  Level Edmonton Center
Fri 09:10:47 PM 56.3667 -123.1333 293° West 440 506 36,000  Level Edmonton Center
Fri 09:11:47 PM 56.4167 -123.3500 293° West 440 506 36,000  Level Edmonton Center
Fri 09:12:47 PM 56.4833 -123.5500 301° West 440 506 36,000  Level Edmonton Center
Fri 09:13:47 PM 56.5333 -123.7667 293° West 440 506 36,000  Level Edmonton Center
Fri 09:14:47 PM 56.5833 -123.9500 296° West 450 518 36,000  Level Edmonton Center
Fri 09:15:47 PM 56.6500 -124.1667 299° West 450 518 36,000  Level Edmonton Center
Fri 09:16:47 PM 56.7000 -124.3833 293° West 450 518 36,000  Level Edmonton Center
Fri 09:17:47 PM 56.7500 -124.5833 295° West 450 518 36,000  Level Edmonton Center
Fri 09:18:47 PM 56.8000 -124.7667 297° West 450 518 36,000  Level Edmonton Center
Fri 09:19:47 PM 56.8500 -124.9833 293° West 450 518 36,000 -50 Level Edmonton Center
Fri 09:20:47 PM 56.9167 -125.1833 301° West 450 518 35,900  Descending Edmonton Center
Fri 09:21:47 PM 56.9667 -125.4000 293° West 450 518 36,000 50 Climbing Edmonton Center
Fri 09:22:47 PM 57.0167 -125.6333 292° West 450 518 36,000  Level Edmonton Center
Fri 09:24:00 PM 57.0798 -125.8775 296° West  Level FlightAware Approximate
Fri 09:31:00 PM 57.4272 -127.3035 294° West  Level FlightAware Approximate
Fri 09:32:00 PM 57.4749 -127.5099 293° West  Level FlightAware Approximate
Fri 09:33:00 PM 57.5223 -127.7168 293° West  Level FlightAware Approximate
Fri 09:34:00 PM 57.5694 -127.9243 293° West  Level FlightAware Approximate
Fri 09:35:00 PM 57.6161 -128.1322 293° West  Level FlightAware Approximate
Fri 09:36:00 PM 57.6625 -128.3407 293° West  Level FlightAware Approximate
Fri 09:37:00 PM 57.7086 -128.5498 292° West  Level FlightAware Approximate
Fri 09:38:00 PM 57.7543 -128.7594 292° West  Level FlightAware Approximate
Fri 09:39:00 PM 57.7996 -128.9695 292° West  Level FlightAware Approximate
Fri 09:40:00 PM 57.8446 -129.1801 292° West  Level FlightAware Approximate
Fri 09:41:00 PM 57.8893 -129.3913 292° West  Level FlightAware Approximate
Fri 09:42:00 PM 57.9336 -129.6029 292° West  Level FlightAware Approximate
Fri 09:43:00 PM 57.9775 -129.8151 291° West  Level FlightAware Approximate
Fri 09:44:00 PM 58.0211 -130.0279 291° West  Level FlightAware Approximate
Fri 09:45:00 PM 58.0644 -130.2411 291° West  Level FlightAware Approximate
Fri 09:46:00 PM 58.1073 -130.4548 291° West  Level FlightAware Approximate
Fri 09:47:00 PM 58.1498 -130.6691 291° West  Level FlightAware Approximate
Fri 09:48:00 PM 58.1920 -130.8839 291° West  Level FlightAware Approximate
Fri 09:49:00 PM 58.2337 -131.0992 290° West  Level FlightAware Approximate
Fri 09:50:00 PM 58.2752 -131.3150 290° West  Level FlightAware Approximate
Fri 09:51:00 PM 58.3163 -131.5312 290° West  Level FlightAware Approximate
Fri 09:52:00 PM 58.3565 -131.7484 290° West  Level FlightAware Approximate
Fri 09:53:00 PM 58.3963 -131.9660 289° West  Level FlightAware Approximate
Fri 09:54:00 PM 58.4358 -132.1841 289° West  Level FlightAware Approximate
Fri 09:55:00 PM 58.4748 -132.4027 289° West  Level FlightAware Approximate
Fri 09:56:00 PM 58.5135 -132.6218 289° West  Level FlightAware Approximate
Fri 09:56:52 PM 58.6167 -133.2333 285° West 490 564 36,000  Level Anchorage Center
Fri 09:57:00 PM 58.5519 -132.8414 289° West  Level FlightAware Approximate
Fri 09:57:52 PM 58.6500 -133.4833 284° West 480 552 36,000  Level Anchorage Center
Fri 09:58:00 PM 58.5899 -133.0615 288° West  Level FlightAware Approximate
Fri 09:58:52 PM 58.7000 -133.7167 292° West 480 552 36,000  Level Anchorage Center
Fri 09:59:00 PM 58.6274 -133.2820 288° West  Level FlightAware Approximate
Fri 09:59:53 PM 58.7333 -133.9667 285° West 490 564 36,000  Level Anchorage Center
Fri 10:00:00 PM 58.6646 -133.5030 288° West  Level FlightAware Approximate
Fri 10:00:52 PM 58.7667 -134.2167 285° West 490 564 36,000  Level Anchorage Center
Fri 10:01:00 PM 58.7015 -133.7245 288° West  Level FlightAware Approximate
Fri 10:01:53 PM 58.8167 -134.4667 291° West 490 564 36,000  Level Anchorage Center
Fri 10:02:00 PM 58.7347 -133.9482 285° West  Level FlightAware Approximate
Fri 10:02:53 PM 58.8500 -134.7167 285° West 490 564 36,000  Level Anchorage Center
Fri 10:03:53 PM 58.8833 -134.9667 285° West 490 564 36,000  Level Anchorage Center
Fri 10:04:53 PM 58.9333 -135.2167 291° West 490 564 36,000  Level Anchorage Center
Fri 10:05:53 PM 58.9667 -135.4667 285° West 480 552 36,000  Level Anchorage Center
Fri 10:06:53 PM 59.0000 -135.7000 286° West 470 541 36,000  Level Anchorage Center
Fri 10:07:53 PM 59.0333 -135.9500 285° West 480 552 36,000  Level Anchorage Center
Fri 10:08:53 PM 59.0667 -136.2000 285° West 480 552 36,000  Level Anchorage Center
Fri 10:09:53 PM 59.1000 -136.4667 284° West 490 564 36,000  Level Anchorage Center
Fri 10:10:54 PM 59.1500 -136.7167 291° West 490 564 36,000  Level Anchorage Center
Fri 10:11:54 PM 59.1833 -136.9667 285° West 490 564 36,000  Level Anchorage Center
Fri 10:12:54 PM 59.2167 -137.2333 284° West 490 564 36,000  Level Anchorage Center
Fri 10:13:54 PM 59.2500 -137.4833 285° West 490 564 36,000  Level Anchorage Center
Fri 10:14:54 PM 59.2833 -137.7500 284° West 480 552 36,000  Level Anchorage Center
Fri 10:15:54 PM 59.3167 -138.0000 285° West 490 564 36,000  Level Anchorage Center
Fri 10:16:54 PM 59.3500 -138.2667 284° West 480 552 36,000  Level Anchorage Center
Fri 10:17:54 PM 59.3667 -138.5167 278° West 490 564 36,000  Level Anchorage Center
Fri 10:18:54 PM 59.4000 -138.7833 284° West 490 564 36,000  Level Anchorage Center
Fri 10:19:54 PM 59.4333 -139.0333 285° West 490 564 36,000  Level Anchorage Center
Fri 10:20:55 PM 59.4667 -139.3000 284° West 490 564 36,000  Level Anchorage Center
Fri 10:21:54 PM 59.4833 -139.5167 279° West 480 552 36,000  Level Anchorage Center
Fri 10:22:55 PM 59.5333 -139.8333 287° West 490 564 36,000  Level Anchorage Center
Fri 10:23:55 PM 59.5667 -140.0667 286° West 490 564 36,000  Level Anchorage Center
Fri 10:24:55 PM 59.6167 -140.3167 292° West 490 564 36,000  Level Anchorage Center
Fri 10:25:55 PM 59.6500 -140.5667 285° West 490 564 36,000  Level Anchorage Center
Fri 10:26:55 PM 59.7000 -140.8333 290° West 490 564 36,000  Level Anchorage Center
Fri 10:27:55 PM 59.7333 -141.0833 285° West 490 564 36,000  Level Anchorage Center
Fri 10:28:55 PM 59.7833 -141.3500 291° West 490 564 36,000  Level Anchorage Center
Fri 10:29:55 PM 59.8167 -141.6167 284° West 490 564 36,000  Level Anchorage Center
Fri 10:30:56 PM 59.8667 -141.8667 292° West 490 564 36,000  Level Anchorage Center
Fri 10:31:56 PM 59.9000 -142.1333 284° West 490 564 36,000  Level Anchorage Center
Fri 10:32:56 PM 59.9333 -142.4000 284° West 500 575 36,000  Level Anchorage Center
Fri 10:33:56 PM 59.9667 -142.6667 284° West 490 564 36,000  Level Anchorage Center
Fri 10:34:56 PM 60.0167 -142.9167 292° West 490 564 36,000  Level Anchorage Center
Fri 10:35:56 PM 60.0500 -143.1833 284° West 490 564 36,000  Level Anchorage Center
Fri 10:36:56 PM 60.0833 -143.4833 283° West 500 575 36,000  Level Anchorage Center
Fri 10:37:56 PM 60.1167 -143.7333 285° West 490 564 36,000  Level Anchorage Center
Fri 10:38:56 PM 60.1667 -144.0000 291° West 490 564 36,000  Level Anchorage Center
Fri 10:39:57 PM 60.2000 -144.2667 284° West 490 564 36,000  Level Anchorage Center
Fri 10:40:57 PM 60.2333 -144.5500 283° West 490 564 36,000  Level Anchorage Center
Fri 10:41:56 PM 60.2667 -144.8167 284° West 490 564 36,000  Level Anchorage Center
Fri 10:42:57 PM 60.3000 -145.0833 284° West 490 564 36,000  Level Anchorage Center
Fri 10:43:57 PM 60.3333 -145.3500 284° West 500 575 36,000  Level Anchorage Center
Fri 10:44:57 PM 60.3667 -145.6167 284° West 490 564 36,000  Level Anchorage Center
Fri 10:45:57 PM 60.4000 -145.8833 284° West 500 575 36,000 -359 Level Anchorage Center
Fri 10:51:21 PM 60.6070 -147.3740 284° West 505 581 33,700 -379 Descending FlightAware ADS-B
Fri 10:52:01 PM 60.6300 -147.5290 287° West 505 581 33,700  Level FlightAware ADS-B
Fri 10:52:41 PM 60.6530 -147.6840 287° West 505 581 33,700  Level FlightAware ADS-B
Fri 10:53:31 PM 60.6820 -147.8780 287° West 505 581 33,700 -6,133 Level FlightAware ADS-B
Fri 10:54:11 PM 60.7260 -148.1340 289° West 457 526 24,500 -8,100 Descending FlightAware ADS-B
Fri 10:54:51 PM 60.7500 -148.2960 287° West 441 507 22,900 -2,400 Descending FlightAware ADS-B
Fri 10:55:36 PM 60.7770 -148.4730 287° West 430 495 21,100 -2,400 Descending FlightAware ADS-B
Fri 10:56:16 PM 60.7990 -148.6240 287° West 423 487 19,500 -2,400 Descending FlightAware ADS-B
Fri 10:56:56 PM 60.8210 -148.7750 287° West 413 475 17,900 -2,541 Descending FlightAware ADS-B
Fri 10:57:41 PM 60.8460 -148.9420 287° West 404 465 15,900 -2,541 Descending FlightAware ADS-B
Fri 10:58:21 PM 60.8660 -149.0880 286° West 395 455 14,300 -2,400 Descending FlightAware ADS-B
Fri 10:59:06 PM 60.8910 -149.2470 288° West 389 448 12,500 -1,906 Descending FlightAware ADS-B
Fri 10:59:46 PM 60.9190 -149.3790 294° West 363 418 11,600 -1,125 Descending FlightAware ADS-B
Fri 11:00:26 PM 60.9430 -149.5040 292° West 331 381 11,000 -988 Descending FlightAware ADS-B
Fri 11:01:11 PM 60.9680 -149.6300 292° West 309 356 10,200 -943 Descending FlightAware ADS-B
Fri 11:01:36 PM 60.9810 -149.6910 294° West 293 337 9,900 -655 Descending FlightAware ADS-B
Fri 11:02:06 PM 60.9960 -149.7710 291° West 280 322 9,600 -1,200 Descending FlightAware ADS-B
Fri 11:02:21 PM 61.0040 -149.8090 293° West 286 329 9,000 -1,733 Descending FlightAware ADS-B
Fri 11:02:51 PM 61.0190 -149.8870 292° West 285 328 8,300 -1,091 Descending FlightAware ADS-B
Fri 11:03:16 PM 61.0310 -149.9460 293° West 293 337 8,000 -327 Descending FlightAware ADS-B
Fri 11:03:46 PM 61.0460 -150.0240 292° West 293 337 8,000 -436 Level FlightAware ADS-B
Fri 11:04:11 PM 61.0590 -150.0890 292° West 293 337 7,600 -1,200 Descending FlightAware ADS-B
Fri 11:04:36 PM 61.0710 -150.1510 292° West 289 333 7,000 -1,000 Descending FlightAware ADS-B
Fri 11:05:11 PM 61.0890 -150.2430 292° West 270 311 6,600 -700 Descending FlightAware ADS-B
Fri 11:05:36 PM 61.1000 -150.3010 291° West 258 297 6,300 -764 Descending FlightAware ADS-B
Fri 11:06:06 PM 61.1130 -150.3660 293° West 244 281 5,900 -1,091 Descending FlightAware ADS-B
Fri 11:06:31 PM 61.1260 -150.4190 297° West 243 280 5,300 -1,350 Descending FlightAware ADS-B
Fri 11:06:46 PM 61.1390 -150.4340 331° Northwest 237 273 5,000 -1,400 Descending FlightAware ADS-B
Fri 11:07:01 PM 61.1560 -150.4330 North 227 261 4,600 -1,400 Descending FlightAware ADS-B
Fri 11:07:16 PM 61.1680 -150.4160 34° Northeast 218 251 4,300 -1,200 Descending FlightAware ADS-B
Fri 11:07:31 PM 61.1720 -150.3890 73° East 211 243 4,000 -1,650 Descending FlightAware ADS-B
Fri 11:07:56 PM 61.1690 -150.3370 97° East 211 243 3,200 -1,636 Descending FlightAware ADS-B
Fri 11:08:26 PM 61.1670 -150.2760 94° East 206 237 2,500 -1,371 Descending FlightAware ADS-B
Fri 11:09:06 PM 61.1670 -150.2060 90° East 171 197 1,600 -1,200 Descending FlightAware ADS-B
Fri 11:09:21 PM 61.1680 -150.1810 85° East 153 176 1,400 -750 Descending FlightAware ADS-B
Fri 11:09:46 PM 61.1680 -150.1490 90° East 152 175 1,100 -764 Descending FlightAware ADS-B
Fri 11:10:16 PM 61.1680 -150.1020 90° East 155 178 700 -800 Descending FlightAware ADS-B
Fri 11:10:31 PM 61.1680 -150.0780 90° East 154 177 500 -800 Descending FlightAware ADS-B
Fri 11:11:01 PM 61.1680 -150.0350 90° East 153 176 -1,000 Descending FlightAware ADS-B

Login

Don't have an account? Register now (free) for customized features, flight alerts, and more!